Flight Track Log - Related Links

Times and Time Zones

All times are in EDT time to prevent confusion due to time zone crossing. See the N39418 flight status page for this flight to view local times or setup timezone preferences in your user account.

Time Position Orientation Groundspeed Altitude Reporting Facility
EDT Latitude Longitude Course Direction KTS MPH feet Rate Location/Type
Mon 02:58:18 47.4469 -122.2566 219° Southwest  Level FlightAware
Mon 02:59:18 47.4317 -122.0750 260° West  Level FlightAware
Mon 03:00:05 47.4028 -122.3097 180° South 155 178 2,800  Level Seattle Center
Mon 03:01:05 47.3467 -122.3097 121° Southeast 200 230 5,100 2,300 Climbing Seattle Center
Mon 03:02:05 47.3147 -122.2311 72° East 281 323 7,400 2,430 Climbing Seattle Center
Mon 03:03:06 47.3411 -122.1122 71° East 312 359 10,000 2,182 Climbing Seattle Center
Mon 03:04:06 47.3789 -121.9525 72° East 363 418 11,800 1,800 Climbing Seattle Center
Mon 03:05:06 47.4117 -121.8042 82° East 387 445 13,600 1,900 Climbing Seattle Center
Mon 03:06:06 47.4278 -121.6425 91° East 411 473 15,600 2,033 Climbing Seattle Center
Mon 03:07:07 47.4261 -121.4761 94° East 414 476 17,700 1,884 Climbing Seattle Center
Mon 03:08:07 47.4181 -121.3036 96° East 425 489 19,400 1,750 Climbing Seattle Center
Mon 03:09:07 47.4064 -121.1283 92° East 435 501 21,200 1,500 Climbing Seattle Center
Mon 03:10:07 47.4025 -120.9439 92° East 452 520 22,400 1,140 Climbing Seattle Center
Mon 03:11:08 47.3969 -120.7592 92° East 465 535 23,500 1,438 Climbing Seattle Center
Mon 03:12:08 47.3914 -120.5606 93° East 479 551 25,300 1,550 Climbing Seattle Center
Mon 03:13:08 47.3847 -120.3611 93° East 486 559 26,600 1,100 Climbing Seattle Center
Mon 03:14:08 47.3775 -120.1561 93° East 495 570 27,500 793 Climbing Seattle Center
Mon 03:15:09 47.3708 -119.9436 93° East 515 593 28,200 744 Climbing Seattle Center
Mon 03:16:09 47.3622 -119.7256 94° East 530 610 29,000 800 Climbing Seattle Center
Mon 03:17:09 47.3525 -119.5039 94° East 541 623 29,800 1,350 Climbing Seattle Center
Mon 03:18:09 47.3431 -119.2822 94° East 544 626 31,700 1,550 Climbing Seattle Center
Mon 03:19:09 47.3333 -119.0750 94° East 510 587 32,900 595 Climbing Seattle Center
Mon 03:20:10 47.3233 -118.8664 93° East 510 587 32,900  Level Seattle Center
Mon 03:21:10 47.3150 -118.6603 94° East 509 586 32,900 50 Level Seattle Center
Mon 03:22:10 47.3042 -118.4547 95° East 506 582 33,000 50 Climbing Seattle Center
Mon 03:23:10 47.2931 -118.2506 94° East 504 580 33,000  Level Seattle Center
Mon 03:24:10 47.2803 -118.0086 94° East 499 574 33,000  Level Seattle Center
Mon 03:25:11 47.2706 -117.8092 94° East 495 570 33,000 -50 Level Seattle Center
Mon 03:26:11 47.2603 -117.6117 94° East 491 565 32,900 -50 Descending Seattle Center
Mon 03:27:11 47.2500 -117.4147 95° East 489 563 32,900 50 Level Seattle Center
Mon 03:28:11 47.2381 -117.2183 95° East 489 563 33,000  Climbing Seattle Center
Mon 03:29:11 47.2264 -117.0192 95° East 493 567 32,900  Descending Seattle Center
Mon 03:30:12 47.2142 -116.8194 95° East 496 571 33,000  Climbing Seattle Center
Mon 03:31:12 47.2008 -116.6167 95° East 501 577 32,900 -50 Descending Seattle Center
Mon 03:32:12 47.1875 -116.4139 96° East 502 578 32,900 50 Level Seattle Center
Mon 03:33:12 47.1733 -116.2100 96° East 503 579 33,000 50 Climbing Seattle Center
Mon 03:34:13 47.1592 -116.0061 96° East 504 580 33,000 -50 Level Seattle Center
Mon 03:35:13 47.1444 -115.8033 96° East 504 580 32,900  Descending Seattle Center
Mon 03:36:13 47.1294 -115.6017 97° East 501 577 33,000  Climbing Seattle Center
Mon 03:37:13 47.1136 -115.4011 96° East 499 574 32,900  Descending Seattle Center
Mon 03:38:13 47.0981 -115.2019 96° East 500 575 33,000 50 Climbing Seattle Center
Mon 03:39:14 47.0831 -115.0036 97° East 497 572 33,000  Level Seattle Center
Mon 03:40:14 47.0667 -114.8042 97° East 495 570 33,000  Level Seattle Center
Mon 03:41:14 47.0500 -114.6072 97° East 493 567 33,000 -50 Level Seattle Center
Mon 03:42:14 47.0336 -114.4081 97° East 494 568 32,900 -50 Descending Seattle Center
Mon 03:43:14 47.0164 -114.2122 97° East 490 564 32,900 50 Level Seattle Center
Mon 03:44:15 46.9992 -114.0144 98° East 491 565 33,000 50 Climbing Seattle Center
Mon 03:45:15 46.9814 -113.8197 98° East 489 563 33,000 -50 Level Seattle Center
Mon 03:46:15 46.9597 -113.5825 98° East 492 566 32,900  Descending Seattle Center
Mon 03:47:37 46.9381 -113.3506 98° East 488 562 33,000 42 Climbing Salt Center
Mon 03:48:37 46.9197 -113.1567 98° East 486 559 33,000  Level Salt Center
Mon 03:49:38 46.9006 -112.9628 98° East 484 557 33,000  Level Salt Center
Mon 03:50:38 46.8814 -112.7569 98° East 486 559 33,000 -50 Level Salt Center
Mon 03:51:38 46.8617 -112.5631 98° East 486 559 32,900  Descending Salt Center
Mon 03:52:39 46.8422 -112.3706 99° East 484 557 33,000  Climbing Salt Center
Mon 03:53:39 46.8222 -112.1811 99° East 478 550 32,900  Descending Salt Center
Mon 03:54:40 46.8019 -111.9911 99° East 477 549 33,000  Climbing Salt Center
Mon 03:55:40 46.7803 -111.8017 99° East 477 549 32,900  Descending Salt Center
Mon 03:56:40 46.7550 -111.5739 99° East 477 549 33,000 50 Climbing Salt Center
Mon 03:57:41 46.7339 -111.3872 99° East 475 547 33,000 -50 Level Salt Center
Mon 03:58:41 46.7119 -111.1942 100° East 480 552 32,900  Descending Salt Center
Mon 03:59:42 46.6894 -111.0019 100° East 483 556 33,000  Climbing Salt Center
Mon 04:00:42 46.6664 -110.8067 99° East 489 563 32,900  Descending Salt Center
Mon 04:01:42 46.6442 -110.6136 100° East 488 562 33,000 50 Climbing Salt Center
Mon 04:02:43 46.6192 -110.4150 100° East 479 551 33,000  Level Salt Center
Mon 04:03:43 46.5964 -110.2319 100° East 480 552 33,000  Level Salt Center
Mon 04:04:43 46.5742 -110.0467 100° East 483 556 33,000  Level Salt Center
Mon 04:05:44 46.5478 -109.8333 101° East 481 554 33,000  Level Salt Center
Mon 04:06:44 46.5242 -109.6528 100° East 478 550 33,000  Level Salt Center
Mon 04:07:44 46.5011 -109.4717 100° East 477 549 33,000  Level Salt Center
Mon 04:08:45 46.4786 -109.2889 101° East 479 551 33,000  Level Salt Center
Mon 04:09:45 46.4508 -109.0822 101° East 469 540 33,000  Level Salt Center
Mon 04:10:45 46.4278 -108.9103 102° East 458 527 33,000  Level Salt Center
Mon 04:11:46 46.4028 -108.7342 101° East 462 532 33,000  Level Salt Center
Mon 04:12:46 46.3742 -108.5308 101° East 462 532 33,000  Level Salt Center
Mon 04:13:46 46.3497 -108.3561 102° East 462 532 33,000  Level Salt Center
Mon 04:14:46 46.3247 -108.1814 102° East 463 533 33,000  Level Salt Center
Mon 04:15:47 46.2994 -108.0039 102° East 467 537 33,000  Level Salt Center
Mon 04:16:47 46.2694 -107.7983 102° East 468 539 33,000  Level Salt Center
Mon 04:17:47 46.2433 -107.6228 102° East 467 537 33,000  Level Salt Center
Mon 04:18:48 46.2172 -107.4486 102° East 465 535 33,000  Level Salt Center
Mon 04:19:48 46.1911 -107.2744 102° East 464 534 33,000  Level Salt Center
Mon 04:20:48 46.1608 -107.0667 103° East 470 541 33,000  Level Salt Center
Mon 04:21:49 46.1333 -106.8903 102° East 470 541 33,000  Level Salt Center
Mon 04:22:49 46.1061 -106.7117 103° East 473 544 33,000  Level Salt Center
Mon 04:23:49 46.0767 -106.5319 103° East 476 548 33,000  Level Salt Center
Mon 04:24:49 46.0428 -106.3247 103° East 477 549 33,000  Level Salt Center
Mon 04:25:50 46.0139 -106.1478 103° East 476 548 33,000  Level Salt Center
Mon 04:26:50 45.9850 -105.9725 103° East 474 545 33,000  Level Salt Center
Mon 04:27:50 45.9511 -105.7692 103° East 471 542 33,000  Level Salt Center
Mon 04:28:50 45.9219 -105.5953 103° East 470 541 33,000  Level Salt Center
Mon 04:29:51 45.8933 -105.4228 102° East 467 537 33,000  Level Salt Center
Mon 04:30:51 45.8669 -105.2519 104° East 463 533 33,000  Level Salt Center
Mon 04:31:51 45.8322 -105.0508 104° East 464 534 33,000  Level Salt Center
Mon 04:32:51 45.8017 -104.8783 104° East 465 535 33,000  Level Salt Center
Mon 04:33:51 45.7714 -104.7075 104° East 464 534 33,000  Level Salt Center
Mon 04:34:52 45.7411 -104.5364 104° East 463 533 33,000  Level Salt Center
Mon 04:35:52 45.7114 -104.3661 105° East 463 533 33,000  Level Salt Center
Mon 04:36:52 45.6789 -104.1894 105° East 462 532 33,000  Level Salt Center
Mon 04:37:52 45.6469 -104.0144 105° East 459 528 33,000  Level Salt Center
Mon 04:38:52 45.6142 -103.8406 105° East 457 526 33,000  Level Salt Center
Mon 04:39:53 45.5825 -103.6678 105° East 455 524 33,000  Level Salt Center
Mon 04:40:53 45.5508 -103.4939 105° East 455 524 33,000  Level Salt Center
Mon 04:41:53 45.5108 -103.2864 105° East 454 522 33,000  Level Salt Center
Mon 04:42:53 45.4775 -103.1125 105° East 455 524 33,000  Level Salt Center
Mon 04:43:53 45.4442 -102.9400 106° East 456 525 33,000  Level Salt Center
Mon 04:44:53 45.4108 -102.7694 105° East 452 520 33,000  Level Salt Center
Mon 04:45:54 45.3781 -102.5992 106° East 450 518 33,000  Level Salt Center
Mon 04:46:54 45.3450 -102.4317 107° East 447 514 33,000  Level Salt Center
Mon 04:48:08 45.3011 -102.2308 105° East 443 510 33,000  Level Minneapolis Center
Mon 04:49:08 45.2683 -102.0631 105° East 438 504 33,000  Level Minneapolis Center
Mon 04:50:08 45.2367 -101.9014 106° East 438 504 33,000  Level Minneapolis Center
Mon 04:51:08 45.2031 -101.7367 106° East 438 504 33,000  Level Minneapolis Center
Mon 04:52:08 45.1689 -101.5722 106° East 438 504 33,000  Level Minneapolis Center
Mon 04:53:08 45.1347 -101.4081 106° East 438 504 33,000  Level Minneapolis Center
Mon 04:54:08 45.1019 -101.2500 106° East 433 498 33,000  Level Minneapolis Center
Mon 04:55:08 45.0692 -101.0922 107° East 426 490 33,000  Level Minneapolis Center
Mon 04:56:08 45.0358 -100.9347 107° East 420 483 33,000  Level Minneapolis Center
Mon 04:57:08 45.0022 -100.7803 108° East 415 478 33,000  Level Minneapolis Center
Mon 04:58:08 44.9664 -100.6256 106° East 415 478 33,000  Level Minneapolis Center
Mon 04:59:08 44.9342 -100.4717 107° East 415 478 33,000  Level Minneapolis Center
Mon 05:00:08 44.9000 -100.3178 108° East 415 478 33,000  Level Minneapolis Center
Mon 05:01:08 44.8636 -100.1608 102° East 415 478 33,000  Level Minneapolis Center
Mon 05:02:08 44.8397 -99.9997 103° East 415 478 33,000  Level Minneapolis Center
Mon 05:03:08 44.8136 -99.8383 102° East 415 478 33,000  Level Minneapolis Center
Mon 05:04:08 44.7906 -99.6922 102° East 424 488 33,000  Level Minneapolis Center
Mon 05:05:08 44.7658 -99.5314 103° East 424 488 33,000  Level Minneapolis Center
Mon 05:06:08 44.7392 -99.3675 102° East 424 488 33,000  Level Minneapolis Center
Mon 05:07:08 44.7142 -99.2069 102° East 419 482 33,000 150 Level Minneapolis Center
Mon 05:08:08 44.6892 -99.0467 103° East 419 482 33,300 600 Climbing Minneapolis Center
Mon 05:09:08 44.6617 -98.8803 103° East 419 482 34,200 850 Climbing Minneapolis Center
Mon 05:10:08 44.6342 -98.7172 104° East 419 482 35,000 400 Climbing Minneapolis Center
Mon 05:11:08 44.6061 -98.5539 103° East 419 482 35,000  Level Minneapolis Center
Mon 05:12:08 44.5783 -98.3881 103° East 419 482 35,000  Level Minneapolis Center
Mon 05:13:08 44.5500 -98.2225 104° East 424 488 35,000  Level Minneapolis Center
Mon 05:14:08 44.5181 -98.0422 104° East 424 488 35,000  Level Minneapolis Center
Mon 05:15:08 44.4892 -97.8767 105° East 424 488 35,000  Level Minneapolis Center
Mon 05:16:08 44.4581 -97.7114 103° East 430 495 35,000  Level Minneapolis Center
Mon 05:17:08 44.4289 -97.5406 104° East 435 501 35,000  Level Minneapolis Center
Mon 05:18:08 44.3997 -97.3728 105° East 441 507 35,000  Level Minneapolis Center
Mon 05:19:08 44.3678 -97.2050 104° East 441 507 35,000  Level Minneapolis Center
Mon 05:20:08 44.3394 -97.0522 104° East 441 507 35,000  Level Minneapolis Center
Mon 05:21:08 44.3094 -96.8850 105° East 441 507 35,000  Level Minneapolis Center
Mon 05:22:08 44.2789 -96.7236 104° East 441 507 35,000  Level Minneapolis Center
Mon 05:23:08 44.2483 -96.5539 105° East 441 507 35,000  Level Minneapolis Center
Mon 05:24:08 44.2172 -96.3928 106° East 435 501 35,000  Level Minneapolis Center
Mon 05:25:08 44.1781 -96.2083 103° East 435 501 35,000  Level Minneapolis Center
Mon 05:26:08 44.1544 -96.0656 105° East 440 506 35,000  Level Minneapolis Center
Mon 05:27:08 44.1228 -95.9022 106° East 435 501 35,000  Level Minneapolis Center
Mon 05:28:08 44.0889 -95.7361 105° East 435 501 35,000  Level Minneapolis Center
Mon 05:29:08 44.0586 -95.5758 104° East 435 501 35,000  Level Minneapolis Center
Mon 05:30:08 44.0283 -95.4103 106° East 435 501 35,000  Level Minneapolis Center
Mon 05:31:08 43.9958 -95.2506 106° East 435 501 35,000  Level Minneapolis Center
Mon 05:32:08 43.9628 -95.0908 106° East 435 501 35,000  Level Minneapolis Center
Mon 05:33:08 43.9258 -94.9111 106° East 435 501 35,000  Level Minneapolis Center
Mon 05:34:08 43.8922 -94.7519 106° East 435 501 35,000  Level Minneapolis Center
Mon 05:35:08 43.8586 -94.5931 105° East 435 501 35,000  Level Minneapolis Center
Mon 05:36:08 43.8269 -94.4311 106° East 435 501 35,000  Level Minneapolis Center
Mon 05:37:08 43.7928 -94.2697 108° East 435 501 35,000  Level Minneapolis Center
Mon 05:38:08 43.7544 -94.1083 106° East 441 507 35,000  Level Minneapolis Center
Mon 05:39:08 43.7197 -93.9442 106° East 441 507 35,000  Level Minneapolis Center
Mon 05:40:08 43.6850 -93.7803 107° East 441 507 35,000  Level Minneapolis Center
Mon 05:41:08 43.6481 -93.6139 107° East 441 507 35,000  Level Minneapolis Center
Mon 05:42:08 43.6128 -93.4503 107° East 441 507 35,000  Level Minneapolis Center
Mon 05:43:08 43.5750 -93.2814 108° East 447 514 35,000  Level Minneapolis Center
Mon 05:44:08 43.5372 -93.1211 107° East 440 506 35,000  Level Minneapolis Center
Mon 05:45:08 43.5014 -92.9583 107° East 440 506 35,000  Level Minneapolis Center
Mon 05:46:08 43.4650 -92.7958 107° East 440 506 35,000  Level Minneapolis Center
Mon 05:47:08 43.4286 -92.6333 108° East 440 506 35,000  Level Minneapolis Center
Mon 05:48:08 43.3897 -92.4711 106° East 440 506 35,000  Level Minneapolis Center
Mon 05:49:08 43.3550 -92.3033 109° East 440 506 35,000  Level Minneapolis Center
Mon 05:50:08 43.3158 -92.1444 108° East 440 506 35,000  Level Minneapolis Center
Mon 05:51:08 43.2761 -91.9769 108° East 440 506 35,000  Level Minneapolis Center
Mon 05:53:05 43.2047 -91.6739 107° East 444 511 35,000  Level Chicago Center
Mon 05:54:05 43.1681 -91.5103 108° East 444 511 35,000  Level Chicago Center
Mon 05:55:05 43.1294 -91.3497 108° East 444 511 35,000  Level Chicago Center
Mon 05:56:05 43.0903 -91.1892 107° East 444 511 35,000  Level Chicago Center
Mon 05:57:05 43.0533 -91.0261 109° East 449 517 35,000  Level Chicago Center
Mon 05:58:05 43.0136 -90.8661 110° East 449 517 35,000  Level Chicago Center
Mon 05:59:05 42.9719 -90.7061 108° East 449 517 35,000 -67 Level Chicago Center
Mon 06:01:05 42.8961 -90.3956 109° East 439 505 34,800 -533 Descending Chicago Center
Mon 06:02:05 42.8617 -90.2561 110° East 416 479 33,400 -1,550 Descending Chicago Center
Mon 06:03:05 42.8231 -90.1142 109° East 403 464 31,700 -1,850 Descending Chicago Center
Mon 06:04:05 42.7864 -89.9694 111° Southeast 403 464 29,700 -2,050 Descending Chicago Center
Mon 06:05:05 42.7433 -89.8192 108° East 397 457 27,600 -2,050 Descending Chicago Center
Mon 06:06:05 42.7106 -89.6833 110° East 387 445 25,600 -2,000 Descending Chicago Center
Mon 06:07:05 42.6733 -89.5475 109° East 381 438 23,600 -1,950 Descending Chicago Center
Mon 06:08:05 42.6403 -89.4203 109° East 376 433 21,700 -1,900 Descending Chicago Center
Mon 06:09:05 42.6069 -89.2906 110° East 364 419 19,800 -1,900 Descending Chicago Center
Mon 06:10:05 42.5733 -89.1667 110° East 354 407 17,900 -1,850 Descending Chicago Center
Mon 06:11:05 42.5419 -89.0483 113° Southeast 343 395 16,100 -1,750 Descending Chicago Center
Mon 06:12:05 42.5061 -88.9331 112° Southeast 328 377 14,400 -1,700 Descending Chicago Center
Mon 06:13:05 42.4722 -88.8206 113° Southeast 328 377 12,700 -1,700 Descending Chicago Center
Mon 06:14:05 42.4383 -88.7111 113° Southeast 323 372 11,000 -1,250 Descending Chicago Center
Mon 06:15:05 42.4064 -88.6075 98° East 306 352 10,200 -950 Descending Chicago Center
Mon 06:16:05 42.3953 -88.5064 112° Southeast 280 322 9,100 -800 Descending Chicago Center
Mon 06:17:05 42.3675 -88.4142 118° Southeast 271 312 8,600 -950 Descending Chicago Center
Mon 06:18:05 42.3314 -88.3219 139° Southeast 265 305 7,200 -1,250 Descending Chicago Center
Mon 06:19:05 42.2850 -88.2667 141° Southeast 260 299 6,100 -650 Descending Chicago Center
Mon 06:20:05 42.2364 -88.2142 141° Southeast 247 284 5,900 -550 Descending Chicago Center
Mon 06:21:05 42.1964 -88.1700 139° Southeast 216 249 5,000 -450 Descending Chicago Center
Mon 06:22:05 42.1606 -88.1286 143° Southeast 191 220 5,000 -520 Level Chicago Center
Mon 06:23:12 42.1167 -88.0833 132° Southeast 162 186 3,900 -898 Descending Chicago TRACON
Mon 06:24:12 42.0833 -88.0333 132° Southeast 152 175 3,100 -800 Descending Chicago TRACON

Login

Don't have an account? Register now (free) for customized features, flight alerts, and more!